Portada
METAR-TAF:

METAR-TAF

Aeroports :

Cruzeiro do Sul, Acre, Brasil

latitud: 07-38S, longitud: 072-40W, altitud: 170 m

Observació

L'informe es va fer fa 7 hores i 11 minuts, a les 22:00 UTC
Vent 3 kt del Nord-Oest
Temperatura 24°C
Humitat 89%
Pressió 1014 hPa
Visibilitat 10 km o més
Escasses núvols a una alçada de 1500 ft
Cel cobert a una alçada de 10000 ft

METAR: SBCZ 082200Z 32003KT 9999 FEW015 OVC100 24/22 Q1014

Hora: 00:11 (05:11 UTC)


TAF: manca

Observacions i pronòstics meteorològics de més de 4000 aeroports (METAR i TAF).

Les estacions disponibles són els punts grocs i vermells al mapa.

Posi el ratolí al punt desitjat per veure el nom de l'estació.

Feu clic per veure les observacions i els pronòstics meteorològics.

Per canviar el mapa: feu clic els botons verds amb una creu de color negre per apropar; al botó verd amb un guió per allunyar la imatge; o en les fletxes verdes per a mapes adjacents.


METAR-TAF: